sensor_id;sensor_type;location;lat;lon;timestamp;temperature;humidity
42835;DHT22;29335;50.526;30.458;2022-10-15T00:01:05;7.30;99.90
42835;DHT22;29335;50.526;30.458;2022-10-15T00:03:30;7.30;99.90
42835;DHT22;29335;50.526;30.458;2022-10-15T00:05:57;7.40;99.90
42835;DHT22;29335;50.526;30.458;2022-10-15T00:08:22;7.40;99.90
42835;DHT22;29335;50.526;30.458;2022-10-15T00:10:48;7.40;99.90
42835;DHT22;29335;50.526;30.458;2022-10-15T00:13:13;7.40;99.90
42835;DHT22;29335;50.526;30.458;2022-10-15T00:15:39;7.50;99.90
42835;DHT22;29335;50.526;30.458;2022-10-15T00:18:04;7.50;99.90
42835;DHT22;29335;50.526;30.458;2022-10-15T00:20:30;7.50;99.90
42835;DHT22;29335;50.526;30.458;2022-10-15T00:22:56;7.50;99.90
42835;DHT22;29335;50.526;30.458;2022-10-15T00:25:21;10.70;99.90
42835;DHT22;29335;50.526;30.458;2022-10-15T00:27:47;7.60;99.90
42835;DHT22;29335;50.526;30.458;2022-10-15T00:30:12;7.60;99.90
42835;DHT22;29335;50.526;30.458;2022-10-15T00:32:38;7.70;99.90
42835;DHT22;29335;50.526;30.458;2022-10-15T00:35:04;7.70;99.90
42835;DHT22;29335;50.526;30.458;2022-10-15T00:37:30;7.70;99.90
42835;DHT22;29335;50.526;30.458;2022-10-15T00:39:55;7.70;99.90
42835;DHT22;29335;50.526;30.458;2022-10-15T00:42:22;7.70;99.90
42835;DHT22;29335;50.526;30.458;2022-10-15T00:44:55;7.70;99.90
42835;DHT22;29335;50.526;30.458;2022-10-15T00:47:46;7.70;99.90
42835;DHT22;29335;50.526;30.458;2022-10-15T00:50:14;7.70;99.90
42835;DHT22;29335;50.526;30.458;2022-10-15T00:52:49;7.80;99.90
42835;DHT22;29335;50.526;30.458;2022-10-15T00:55:29;7.80;99.90
42835;DHT22;29335;50.526;30.458;2022-10-15T00:57:58;7.90;99.90
42835;DHT22;29335;50.526;30.458;2022-10-15T01:00:25;7.90;99.90
42835;DHT22;29335;50.526;30.458;2022-10-15T01:02:50;7.90;99.90
42835;DHT22;29335;50.526;30.458;2022-10-15T01:05:17;7.80;99.90
42835;DHT22;29335;50.526;30.458;2022-10-15T01:07:43;7.90;99.90
42835;DHT22;29335;50.526;30.458;2022-10-15T01:10:09;7.90;99.90
42835;DHT22;29335;50.526;30.458;2022-10-15T01:15:27;8.00;99.90
42835;DHT22;29335;50.526;30.458;2022-10-15T01:18:02;8.00;99.90
42835;DHT22;29335;50.526;30.458;2022-10-15T01:20:57;8.00;99.90
42835;DHT22;29335;50.526;30.458;2022-10-15T01:24:03;8.00;99.90
42835;DHT22;29335;50.526;30.458;2022-10-15T01:35:01;8.10;99.90
42835;DHT22;29335;50.526;30.458;2022-10-15T01:45:29;8.20;99.90
42835;DHT22;29335;50.526;30.458;2022-10-15T01:47:58;8.20;99.90
42835;DHT22;29335;50.526;30.458;2022-10-15T01:50:27;8.20;99.90
42835;DHT22;29335;50.526;30.458;2022-10-15T01:52:55;8.20;99.90
42835;DHT22;29335;50.526;30.458;2022-10-15T01:55:23;8.20;99.90
42835;DHT22;29335;50.526;30.458;2022-10-15T01:57:49;8.20;99.90
42835;DHT22;29335;50.526;30.458;2022-10-15T02:00:16;9.70;99.90
42835;DHT22;29335;50.526;30.458;2022-10-15T02:02:42;8.20;99.90
42835;DHT22;29335;50.526;30.458;2022-10-15T02:05:14;8.20;99.90
42835;DHT22;29335;50.526;30.458;2022-10-15T02:10:55;8.30;99.90
42835;DHT22;29335;50.526;30.458;2022-10-15T02:13:24;8.30;99.90
42835;DHT22;29335;50.526;30.458;2022-10-15T02:17:03;8.30;99.90
42835;DHT22;29335;50.526;30.458;2022-10-15T02:19:15;8.30;99.90
42835;DHT22;29335;50.526;30.458;2022-10-15T02:22:35;8.30;99.90
42835;DHT22;29335;50.526;30.458;2022-10-15T02:25:00;8.20;99.90
42835;DHT22;29335;50.526;30.458;2022-10-15T02:27:29;8.20;99.90
42835;DHT22;29335;50.526;30.458;2022-10-15T02:29:57;8.20;99.90
42835;DHT22;29335;50.526;30.458;2022-10-15T02:32:25;8.20;99.90
42835;DHT22;29335;50.526;30.458;2022-10-15T02:34:52;8.20;99.90
42835;DHT22;29335;50.526;30.458;2022-10-15T02:37:21;8.20;99.90
42835;DHT22;29335;50.526;30.458;2022-10-15T02:39:48;8.10;99.90
42835;DHT22;29335;50.526;30.458;2022-10-15T02:42:16;8.20;99.90
42835;DHT22;29335;50.526;30.458;2022-10-15T02:44:41;8.20;99.90
42835;DHT22;29335;50.526;30.458;2022-10-15T02:47:07;10.10;99.90
42835;DHT22;29335;50.526;30.458;2022-10-15T02:49:32;8.10;99.90
42835;DHT22;29335;50.526;30.458;2022-10-15T02:51:58;8.20;99.90
42835;DHT22;29335;50.526;30.458;2022-10-15T02:54:24;8.10;99.90
42835;DHT22;29335;50.526;30.458;2022-10-15T02:56:49;8.20;99.90
42835;DHT22;29335;50.526;30.458;2022-10-15T02:59:15;8.10;99.90
42835;DHT22;29335;50.526;30.458;2022-10-15T03:01:42;8.10;99.90
42835;DHT22;29335;50.526;30.458;2022-10-15T03:04:08;8.10;99.90
42835;DHT22;29335;50.526;30.458;2022-10-15T03:06:33;8.20;99.90
42835;DHT22;29335;50.526;30.458;2022-10-15T03:08:59;8.10;99.90
42835;DHT22;29335;50.526;30.458;2022-10-15T03:11:25;8.10;99.90
42835;DHT22;29335;50.526;30.458;2022-10-15T03:13:50;8.20;99.90
42835;DHT22;29335;50.526;30.458;2022-10-15T03:16:16;8.20;99.90
42835;DHT22;29335;50.526;30.458;2022-10-15T03:18:42;8.20;99.90
42835;DHT22;29335;50.526;30.458;2022-10-15T03:21:07;8.20;99.90
42835;DHT22;29335;50.526;30.458;2022-10-15T03:23:33;8.20;99.90
42835;DHT22;29335;50.526;30.458;2022-10-15T03:25:59;8.20;99.90
42835;DHT22;29335;50.526;30.458;2022-10-15T03:28:24;10.70;99.90
42835;DHT22;29335;50.526;30.458;2022-10-15T03:30:50;8.10;99.90
42835;DHT22;29335;50.526;30.458;2022-10-15T03:33:15;7.30;99.90
42835;DHT22;29335;50.526;30.458;2022-10-15T03:35:41;9.90;99.90
42835;DHT22;29335;50.526;30.458;2022-10-15T03:38:07;8.10;99.90
42835;DHT22;29335;50.526;30.458;2022-10-15T03:40:34;8.20;99.90
42835;DHT22;29335;50.526;30.458;2022-10-15T03:42:59;8.20;99.90
42835;DHT22;29335;50.526;30.458;2022-10-15T03:45:25;8.30;99.90
42835;DHT22;29335;50.526;30.458;2022-10-15T03:47:51;8.30;99.90
42835;DHT22;29335;50.526;30.458;2022-10-15T03:50:17;8.20;99.90
42835;DHT22;29335;50.526;30.458;2022-10-15T03:52:43;8.30;99.90
42835;DHT22;29335;50.526;30.458;2022-10-15T03:55:09;8.20;99.90
42835;DHT22;29335;50.526;30.458;2022-10-15T03:57:36;8.20;99.90
42835;DHT22;29335;50.526;30.458;2022-10-15T04:00:02;8.20;99.90
42835;DHT22;29335;50.526;30.458;2022-10-15T04:02:30;8.20;99.90
42835;DHT22;29335;50.526;30.458;2022-10-15T04:04:56;8.20;99.90
42835;DHT22;29335;50.526;30.458;2022-10-15T04:07:22;8.10;99.90
42835;DHT22;29335;50.526;30.458;2022-10-15T04:09:48;8.20;99.90
42835;DHT22;29335;50.526;30.458;2022-10-15T04:12:14;8.20;99.90
42835;DHT22;29335;50.526;30.458;2022-10-15T04:14:41;8.30;99.90
42835;DHT22;29335;50.526;30.458;2022-10-15T04:17:06;8.20;99.90
42835;DHT22;29335;50.526;30.458;2022-10-15T04:19:32;8.10;99.90
42835;DHT22;29335;50.526;30.458;2022-10-15T04:21:58;8.10;99.90
42835;DHT22;29335;50.526;30.458;2022-10-15T04:24:24;8.10;99.90
42835;DHT22;29335;50.526;30.458;2022-10-15T04:26:50;8.10;99.90
42835;DHT22;29335;50.526;30.458;2022-10-15T04:29:16;8.20;99.90
42835;DHT22;29335;50.526;30.458;2022-10-15T04:31:42;8.20;99.90
42835;DHT22;29335;50.526;30.458;2022-10-15T04:34:07;8.30;99.90
42835;DHT22;29335;50.526;30.458;2022-10-15T04:36:33;9.10;99.90
42835;DHT22;29335;50.526;30.458;2022-10-15T04:39:00;8.30;99.90
42835;DHT22;29335;50.526;30.458;2022-10-15T04:41:26;8.30;99.90
42835;DHT22;29335;50.526;30.458;2022-10-15T04:43:51;8.30;99.90
42835;DHT22;29335;50.526;30.458;2022-10-15T04:46:17;9.90;99.90
42835;DHT22;29335;50.526;30.458;2022-10-15T04:48:46;8.30;99.90
42835;DHT22;29335;50.526;30.458;2022-10-15T04:51:14;10.60;99.90
42835;DHT22;29335;50.526;30.458;2022-10-15T04:53:40;10.30;99.90
42835;DHT22;29335;50.526;30.458;2022-10-15T04:56:10;8.20;99.90
42835;DHT22;29335;50.526;30.458;2022-10-15T04:58:36;8.20;99.90
42835;DHT22;29335;50.526;30.458;2022-10-15T05:01:04;8.20;99.90
42835;DHT22;29335;50.526;30.458;2022-10-15T05:03:30;8.20;99.90
42835;DHT22;29335;50.526;30.458;2022-10-15T05:06:01;8.20;99.90
42835;DHT22;29335;50.526;30.458;2022-10-15T05:08:31;8.30;99.90
42835;DHT22;29335;50.526;30.458;2022-10-15T05:11:03;8.40;99.90
42835;DHT22;29335;50.526;30.458;2022-10-15T05:13:29;8.30;99.90
42835;DHT22;29335;50.526;30.458;2022-10-15T05:15:55;8.40;99.90
42835;DHT22;29335;50.526;30.458;2022-10-15T05:18:21;8.40;99.90
42835;DHT22;29335;50.526;30.458;2022-10-15T05:20:47;10.50;99.90
42835;DHT22;29335;50.526;30.458;2022-10-15T05:23:13;8.40;99.90
42835;DHT22;29335;50.526;30.458;2022-10-15T05:25:38;8.50;99.90
42835;DHT22;29335;50.526;30.458;2022-10-15T05:28:04;10.80;99.90
42835;DHT22;29335;50.526;30.458;2022-10-15T05:30:30;8.60;99.90
42835;DHT22;29335;50.526;30.458;2022-10-15T05:32:55;8.60;99.90
42835;DHT22;29335;50.526;30.458;2022-10-15T05:35:21;8.70;99.90
42835;DHT22;29335;50.526;30.458;2022-10-15T05:37:48;8.70;99.90
42835;DHT22;29335;50.526;30.458;2022-10-15T05:40:14;8.70;99.90
42835;DHT22;29335;50.526;30.458;2022-10-15T05:42:39;9.70;99.90
42835;DHT22;29335;50.526;30.458;2022-10-15T05:45:05;8.80;99.90
42835;DHT22;29335;50.526;30.458;2022-10-15T05:47:31;8.80;99.90
42835;DHT22;29335;50.526;30.458;2022-10-15T05:49:57;8.90;99.90
42835;DHT22;29335;50.526;30.458;2022-10-15T05:52:22;9.00;99.90
42835;DHT22;29335;50.526;30.458;2022-10-15T05:54:48;9.00;99.90
42835;DHT22;29335;50.526;30.458;2022-10-15T05:57:14;9.10;99.90
42835;DHT22;29335;50.526;30.458;2022-10-15T05:59:39;9.20;99.90
42835;DHT22;29335;50.526;30.458;2022-10-15T06:02:05;9.20;99.90
42835;DHT22;29335;50.526;30.458;2022-10-15T06:04:30;9.30;99.90
42835;DHT22;29335;50.526;30.458;2022-10-15T06:06:57;9.30;99.90
42835;DHT22;29335;50.526;30.458;2022-10-15T06:09:22;9.50;99.90
42835;DHT22;29335;50.526;30.458;2022-10-15T06:11:48;9.60;99.90
42835;DHT22;29335;50.526;30.458;2022-10-15T06:14:14;9.60;99.90
42835;DHT22;29335;50.526;30.458;2022-10-15T06:16:39;9.60;99.90
42835;DHT22;29335;50.526;30.458;2022-10-15T06:19:05;9.70;99.90
42835;DHT22;29335;50.526;30.458;2022-10-15T06:21:30;9.80;99.90
42835;DHT22;29335;50.526;30.458;2022-10-15T06:23:56;9.90;99.90
42835;DHT22;29335;50.526;30.458;2022-10-15T06:26:22;10.00;99.90
42835;DHT22;29335;50.526;30.458;2022-10-15T06:28:47;10.10;99.90
42835;DHT22;29335;50.526;30.458;2022-10-15T06:31:13;10.10;99.90
42835;DHT22;29335;50.526;30.458;2022-10-15T06:33:38;10.10;99.90
42835;DHT22;29335;50.526;30.458;2022-10-15T06:36:07;10.20;99.90
42835;DHT22;29335;50.526;30.458;2022-10-15T06:38:33;10.30;99.50
42835;DHT22;29335;50.526;30.458;2022-10-15T06:40:59;10.30;99.00
42835;DHT22;29335;50.526;30.458;2022-10-15T06:43:25;10.40;98.50
42835;DHT22;29335;50.526;30.458;2022-10-15T06:45:51;10.50;97.90
42835;DHT22;29335;50.526;30.458;2022-10-15T06:48:17;10.50;97.90
42835;DHT22;29335;50.526;30.458;2022-10-15T06:50:42;12.50;97.70
42835;DHT22;29335;50.526;30.458;2022-10-15T06:53:08;11.00;97.20
42835;DHT22;29335;50.526;30.458;2022-10-15T06:55:34;10.60;96.40
42835;DHT22;29335;50.526;30.458;2022-10-15T06:58:00;10.60;96.30
42835;DHT22;29335;50.526;30.458;2022-10-15T07:00:26;10.70;95.90
42835;DHT22;29335;50.526;30.458;2022-10-15T07:02:52;11.70;96.10
42835;DHT22;29335;50.526;30.458;2022-10-15T07:05:19;10.60;95.70
42835;DHT22;29335;50.526;30.458;2022-10-15T07:07:56;11.10;95.60
42835;DHT22;29335;50.526;30.458;2022-10-15T07:10:23;10.70;95.30
42835;DHT22;29335;50.526;30.458;2022-10-15T07:12:49;11.90;95.10
42835;DHT22;29335;50.526;30.458;2022-10-15T07:15:15;10.80;94.90
42835;DHT22;29335;50.526;30.458;2022-10-15T07:17:52;11.00;94.60
42835;DHT22;29335;50.526;30.458;2022-10-15T07:20:21;11.00;94.30
42835;DHT22;29335;50.526;30.458;2022-10-15T07:22:47;11.00;94.40
42835;DHT22;29335;50.526;30.458;2022-10-15T07:25:13;11.10;94.20
42835;DHT22;29335;50.526;30.458;2022-10-15T07:27:39;11.10;93.90
42835;DHT22;29335;50.526;30.458;2022-10-15T07:30:06;11.20;93.80
42835;DHT22;29335;50.526;30.458;2022-10-15T07:32:32;11.20;93.60
42835;DHT22;29335;50.526;30.458;2022-10-15T07:34:57;11.30;93.20
42835;DHT22;29335;50.526;30.458;2022-10-15T07:37:23;11.30;93.20
42835;DHT22;29335;50.526;30.458;2022-10-15T07:39:49;11.40;92.90
42835;DHT22;29335;50.526;30.458;2022-10-15T07:42:14;11.50;92.60
42835;DHT22;29335;50.526;30.458;2022-10-15T07:44:40;13.60;93.00
42835;DHT22;29335;50.526;30.458;2022-10-15T07:47:06;14.20;92.50
42835;DHT22;29335;50.526;30.458;2022-10-15T07:49:32;11.60;91.90
42835;DHT22;29335;50.526;30.458;2022-10-15T07:51:58;11.70;91.70
42835;DHT22;29335;50.526;30.458;2022-10-15T07:54:23;11.70;91.70
42835;DHT22;29335;50.526;30.458;2022-10-15T07:56:49;11.70;91.50
42835;DHT22;29335;50.526;30.458;2022-10-15T07:59:14;12.70;91.30
42835;DHT22;29335;50.526;30.458;2022-10-15T08:01:40;11.80;91.00
42835;DHT22;29335;50.526;30.458;2022-10-15T08:04:05;11.80;90.80
42835;DHT22;29335;50.526;30.458;2022-10-15T08:06:32;11.80;90.80
42835;DHT22;29335;50.526;30.458;2022-10-15T08:08:57;11.90;90.40
42835;DHT22;29335;50.526;30.458;2022-10-15T08:11:23;12.00;90.20
42835;DHT22;29335;50.526;30.458;2022-10-15T08:13:50;12.10;89.70
42835;DHT22;29335;50.526;30.458;2022-10-15T08:16:16;12.20;89.20
42835;DHT22;29335;50.526;30.458;2022-10-15T08:18:44;12.10;89.10
42835;DHT22;29335;50.526;30.458;2022-10-15T08:21:10;12.20;89.00
42835;DHT22;29335;50.526;30.458;2022-10-15T08:23:36;12.20;88.50
42835;DHT22;29335;50.526;30.458;2022-10-15T08:26:02;12.30;88.00
42835;DHT22;29335;50.526;30.458;2022-10-15T08:28:29;12.30;87.70
42835;DHT22;29335;50.526;30.458;2022-10-15T08:30:59;12.30;87.90
42835;DHT22;29335;50.526;30.458;2022-10-15T08:33:25;12.50;86.50
42835;DHT22;29335;50.526;30.458;2022-10-15T08:35:51;12.90;86.50
42835;DHT22;29335;50.526;30.458;2022-10-15T08:38:16;12.60;86.40
42835;DHT22;29335;50.526;30.458;2022-10-15T08:40:53;12.50;86.50
42835;DHT22;29335;50.526;30.458;2022-10-15T08:43:23;12.50;86.20
42835;DHT22;29335;50.526;30.458;2022-10-15T08:45:54;12.60;86.10
42835;DHT22;29335;50.526;30.458;2022-10-15T08:48:33;14.00;86.70
42835;DHT22;29335;50.526;30.458;2022-10-15T08:51:06;15.00;87.10
42835;DHT22;29335;50.526;30.458;2022-10-15T08:53:41;13.30;85.30
42835;DHT22;29335;50.526;30.458;2022-10-15T08:56:22;13.40;85.80
42835;DHT22;29335;50.526;30.458;2022-10-15T09:01:35;12.80;84.90
42835;DHT22;29335;50.526;30.458;2022-10-15T09:07:15;13.10;84.30
42835;DHT22;29335;50.526;30.458;2022-10-15T09:09:50;13.10;83.90
42835;DHT22;29335;50.526;30.458;2022-10-15T09:14:56;13.00;84.20
42835;DHT22;29335;50.526;30.458;2022-10-15T09:17:24;13.00;83.90
42835;DHT22;29335;50.526;30.458;2022-10-15T09:19:56;13.00;84.00
42835;DHT22;29335;50.526;30.458;2022-10-15T09:22:28;13.00;83.90
42835;DHT22;29335;50.526;30.458;2022-10-15T09:24:55;13.00;83.30
42835;DHT22;29335;50.526;30.458;2022-10-15T09:27:35;13.00;82.90
42835;DHT22;29335;50.526;30.458;2022-10-15T09:30:11;13.10;82.50
42835;DHT22;29335;50.526;30.458;2022-10-15T09:32:47;13.10;82.60
42835;DHT22;29335;50.526;30.458;2022-10-15T09:35:40;13.10;83.00
42835;DHT22;29335;50.526;30.458;2022-10-15T09:38:16;13.00;83.40
42835;DHT22;29335;50.526;30.458;2022-10-15T09:43:42;12.90;84.20
42835;DHT22;29335;50.526;30.458;2022-10-15T09:46:09;13.20;83.40
42835;DHT22;29335;50.526;30.458;2022-10-15T09:48:40;12.90;82.60
42835;DHT22;29335;50.526;30.458;2022-10-15T09:56:27;13.00;82.00
42835;DHT22;29335;50.526;30.458;2022-10-15T09:58:57;13.10;82.10
42835;DHT22;29335;50.526;30.458;2022-10-15T10:01:25;13.10;83.10
42835;DHT22;29335;50.526;30.458;2022-10-15T10:06:45;13.00;82.30
42835;DHT22;29335;50.526;30.458;2022-10-15T10:09:17;13.10;82.20
42835;DHT22;29335;50.526;30.458;2022-10-15T10:11:47;13.20;81.90
42835;DHT22;29335;50.526;30.458;2022-10-15T10:14:43;13.70;81.80
42835;DHT22;29335;50.526;30.458;2022-10-15T10:17:16;13.10;80.70
42835;DHT22;29335;50.526;30.458;2022-10-15T10:19:44;13.10;80.90
42835;DHT22;29335;50.526;30.458;2022-10-15T10:22:16;13.10;80.90
42835;DHT22;29335;50.526;30.458;2022-10-15T10:24:43;13.10;80.80
42835;DHT22;29335;50.526;30.458;2022-10-15T10:27:21;13.20;80.20
42835;DHT22;29335;50.526;30.458;2022-10-15T10:29:55;13.30;79.80
42835;DHT22;29335;50.526;30.458;2022-10-15T10:32:27;13.30;80.00
42835;DHT22;29335;50.526;30.458;2022-10-15T10:34:54;13.30;80.00
42835;DHT22;29335;50.526;30.458;2022-10-15T10:37:21;13.40;80.10
42835;DHT22;29335;50.526;30.458;2022-10-15T10:39:52;13.30;79.90
42835;DHT22;29335;50.526;30.458;2022-10-15T10:44:44;13.30;79.40
42835;DHT22;29335;50.526;30.458;2022-10-15T10:47:23;13.30;79.60
42835;DHT22;29335;50.526;30.458;2022-10-15T10:49:52;13.30;80.00
42835;DHT22;29335;50.526;30.458;2022-10-15T10:52:25;13.30;80.30
42835;DHT22;29335;50.526;30.458;2022-10-15T10:57:26;13.30;79.60
42835;DHT22;29335;50.526;30.458;2022-10-15T10:59:53;13.40;79.20
42835;DHT22;29335;50.526;30.458;2022-10-15T11:02:20;13.40;78.60
42835;DHT22;29335;50.526;30.458;2022-10-15T11:04:46;13.40;78.50
42835;DHT22;29335;50.526;30.458;2022-10-15T11:07:23;13.50;78.80
42835;DHT22;29335;50.526;30.458;2022-10-15T11:29:01;13.50;78.60
42835;DHT22;29335;50.526;30.458;2022-10-15T11:42:28;13.30;78.60
42835;DHT22;29335;50.526;30.458;2022-10-15T11:55:18;14.10;78.60
42835;DHT22;29335;50.526;30.458;2022-10-15T11:57:46;13.20;78.40
42835;DHT22;29335;50.526;30.458;2022-10-15T12:03:22;13.40;78.40
42835;DHT22;29335;50.526;30.458;2022-10-15T12:05:55;13.50;77.60
42835;DHT22;29335;50.526;30.458;2022-10-15T12:08:23;14.00;78.10
42835;DHT22;29335;50.526;30.458;2022-10-15T12:11:27;13.40;77.90
42835;DHT22;29335;50.526;30.458;2022-10-15T12:14:06;13.50;78.00
42835;DHT22;29335;50.526;30.458;2022-10-15T12:29:44;13.60;77.00
42835;DHT22;29335;50.526;30.458;2022-10-15T12:32:28;13.60;76.80
42835;DHT22;29335;50.526;30.458;2022-10-15T12:37:32;13.60;76.70
42835;DHT22;29335;50.526;30.458;2022-10-15T12:40:04;16.30;78.20
42835;DHT22;29335;50.526;30.458;2022-10-15T12:42:34;13.50;76.60
42835;DHT22;29335;50.526;30.458;2022-10-15T12:45:07;13.50;76.60
42835;DHT22;29335;50.526;30.458;2022-10-15T12:50:34;13.40;76.10
42835;DHT22;29335;50.526;30.458;2022-10-15T12:58:39;13.50;75.60
42835;DHT22;29335;50.526;30.458;2022-10-15T13:03:57;13.50;75.60
42835;DHT22;29335;50.526;30.458;2022-10-15T13:06:32;13.50;75.50
42835;DHT22;29335;50.526;30.458;2022-10-15T13:11:58;16.00;76.30
42835;DHT22;29335;50.526;30.458;2022-10-15T13:14:37;16.60;76.30
42835;DHT22;29335;50.526;30.458;2022-10-15T13:17:16;13.50;74.80
42835;DHT22;29335;50.526;30.458;2022-10-15T13:19:53;13.60;74.20
42835;DHT22;29335;50.526;30.458;2022-10-15T13:22:28;13.70;73.90
42835;DHT22;29335;50.526;30.458;2022-10-15T13:24:55;13.50;73.80
42835;DHT22;29335;50.526;30.458;2022-10-15T13:27:31;13.50;73.80
42835;DHT22;29335;50.526;30.458;2022-10-15T13:30:00;13.60;73.50
42835;DHT22;29335;50.526;30.458;2022-10-15T13:32:39;15.00;73.90
42835;DHT22;29335;50.526;30.458;2022-10-15T13:35:12;13.70;73.30
42835;DHT22;29335;50.526;30.458;2022-10-15T13:37:39;13.70;73.40
42835;DHT22;29335;50.526;30.458;2022-10-15T13:40:07;13.60;73.50
42835;DHT22;29335;50.526;30.458;2022-10-15T13:42:33;13.50;73.40
42835;DHT22;29335;50.526;30.458;2022-10-15T13:47:41;13.50;73.50
42835;DHT22;29335;50.526;30.458;2022-10-15T13:50:30;13.50;73.70
42835;DHT22;29335;50.526;30.458;2022-10-15T13:55:25;13.40;73.70
42835;DHT22;29335;50.526;30.458;2022-10-15T13:57:56;13.40;73.70
42835;DHT22;29335;50.526;30.458;2022-10-15T14:00:26;14.40;74.40
42835;DHT22;29335;50.526;30.458;2022-10-15T14:03:13;13.40;73.80
42835;DHT22;29335;50.526;30.458;2022-10-15T14:05:41;13.40;74.20
42835;DHT22;29335;50.526;30.458;2022-10-15T14:08:18;13.40;74.90
42835;DHT22;29335;50.526;30.458;2022-10-15T14:10:44;13.40;74.40
42835;DHT22;29335;50.526;30.458;2022-10-15T14:13:10;13.30;74.60
42835;DHT22;29335;50.526;30.458;2022-10-15T14:15:39;13.40;74.80
42835;DHT22;29335;50.526;30.458;2022-10-15T14:18:06;13.40;74.70
42835;DHT22;29335;50.526;30.458;2022-10-15T14:20:32;13.20;74.80
42835;DHT22;29335;50.526;30.458;2022-10-15T14:22:59;12.10;74.50
42835;DHT22;29335;50.526;30.458;2022-10-15T14:25:25;13.20;74.90
42835;DHT22;29335;50.526;30.458;2022-10-15T14:27:52;13.20;75.00
42835;DHT22;29335;50.526;30.458;2022-10-15T14:30:27;15.60;76.60
42835;DHT22;29335;50.526;30.458;2022-10-15T14:32:55;13.10;75.20
42835;DHT22;29335;50.526;30.458;2022-10-15T14:38:00;13.10;75.20
42835;DHT22;29335;50.526;30.458;2022-10-15T14:40:26;9.70;73.10
42835;DHT22;29335;50.526;30.458;2022-10-15T14:43:12;13.00;74.80
42835;DHT22;29335;50.526;30.458;2022-10-15T14:45:58;13.00;75.00
42835;DHT22;29335;50.526;30.458;2022-10-15T14:48:27;13.10;74.80
42835;DHT22;29335;50.526;30.458;2022-10-15T14:50:59;13.00;75.30
42835;DHT22;29335;50.526;30.458;2022-10-15T14:53:29;12.90;75.50
42835;DHT22;29335;50.526;30.458;2022-10-15T14:56:12;12.90;75.50
42835;DHT22;29335;50.526;30.458;2022-10-15T14:58:39;12.90;75.30
42835;DHT22;29335;50.526;30.458;2022-10-15T15:01:06;12.80;75.60
42835;DHT22;29335;50.526;30.458;2022-10-15T15:03:40;16.20;77.50
42835;DHT22;29335;50.526;30.458;2022-10-15T15:06:07;13.70;76.40
42835;DHT22;29335;50.526;30.458;2022-10-15T15:08:33;12.60;75.70
42835;DHT22;29335;50.526;30.458;2022-10-15T15:11:01;12.60;75.90
42835;DHT22;29335;50.526;30.458;2022-10-15T15:13:30;12.50;76.10
42835;DHT22;29335;50.526;30.458;2022-10-15T15:15:56;12.50;76.60
42835;DHT22;29335;50.526;30.458;2022-10-15T15:18:21;12.40;76.60
42835;DHT22;29335;50.526;30.458;2022-10-15T15:20:49;12.30;77.00
42835;DHT22;29335;50.526;30.458;2022-10-15T15:23:21;12.20;77.30
42835;DHT22;29335;50.526;30.458;2022-10-15T15:25:48;12.20;77.60
42835;DHT22;29335;50.526;30.458;2022-10-15T15:28:16;12.20;77.70
42835;DHT22;29335;50.526;30.458;2022-10-15T15:30:45;12.00;78.10
42835;DHT22;29335;50.526;30.458;2022-10-15T15:33:13;12.30;78.60
42835;DHT22;29335;50.526;30.458;2022-10-15T15:35:46;12.00;78.90
42835;DHT22;29335;50.526;30.458;2022-10-15T15:38:19;11.90;78.90
42835;DHT22;29335;50.526;30.458;2022-10-15T15:40:46;11.90;79.00
42835;DHT22;29335;50.526;30.458;2022-10-15T15:43:14;11.80;79.20
42835;DHT22;29335;50.526;30.458;2022-10-15T15:45:40;13.40;80.50
42835;DHT22;29335;50.526;30.458;2022-10-15T15:48:07;11.70;79.60
42835;DHT22;29335;50.526;30.458;2022-10-15T15:50:32;11.70;79.80
42835;DHT22;29335;50.526;30.458;2022-10-15T15:52:58;12.20;80.40
42835;DHT22;29335;50.526;30.458;2022-10-15T15:55:24;12.30;80.90
42835;DHT22;29335;50.526;30.458;2022-10-15T15:57:50;11.40;81.00
42835;DHT22;29335;50.526;30.458;2022-10-15T16:00:16;11.40;81.00
42835;DHT22;29335;50.526;30.458;2022-10-15T16:02:42;11.40;81.10
42835;DHT22;29335;50.526;30.458;2022-10-15T16:05:11;11.30;81.30
42835;DHT22;29335;50.526;30.458;2022-10-15T16:07:37;11.30;81.60
42835;DHT22;29335;50.526;30.458;2022-10-15T16:10:03;11.20;82.00
42835;DHT22;29335;50.526;30.458;2022-10-15T16:12:31;11.10;82.80
42835;DHT22;29335;50.526;30.458;2022-10-15T16:14:58;11.10;82.40
42835;DHT22;29335;50.526;30.458;2022-10-15T16:17:24;11.10;82.30
42835;DHT22;29335;50.526;30.458;2022-10-15T16:19:50;11.00;82.60
42835;DHT22;29335;50.526;30.458;2022-10-15T16:22:16;10.90;82.90
42835;DHT22;29335;50.526;30.458;2022-10-15T16:24:41;10.90;83.00
42835;DHT22;29335;50.526;30.458;2022-10-15T16:27:07;10.90;83.30
42835;DHT22;29335;50.526;30.458;2022-10-15T16:29:32;12.80;84.60
42835;DHT22;29335;50.526;30.458;2022-10-15T16:31:58;10.80;84.10
42835;DHT22;29335;50.526;30.458;2022-10-15T16:34:24;10.60;84.20
42835;DHT22;29335;50.526;30.458;2022-10-15T16:36:50;10.70;84.80
42835;DHT22;29335;50.526;30.458;2022-10-15T16:39:15;10.60;85.20
42835;DHT22;29335;50.526;30.458;2022-10-15T16:41:41;11.60;86.00
42835;DHT22;29335;50.526;30.458;2022-10-15T16:44:07;10.40;86.00
42835;DHT22;29335;50.526;30.458;2022-10-15T16:46:32;10.30;86.40
42835;DHT22;29335;50.526;30.458;2022-10-15T16:48:58;10.40;86.80
42835;DHT22;29335;50.526;30.458;2022-10-15T16:51:24;10.30;87.20
42835;DHT22;29335;50.526;30.458;2022-10-15T16:53:50;12.00;88.60
42835;DHT22;29335;50.526;30.458;2022-10-15T16:56:22;10.30;88.10
42835;DHT22;29335;50.526;30.458;2022-10-15T16:58:48;10.20;88.40
42835;DHT22;29335;50.526;30.458;2022-10-15T17:01:24;10.30;89.00
42835;DHT22;29335;50.526;30.458;2022-10-15T17:03:50;10.00;89.80
42835;DHT22;29335;50.526;30.458;2022-10-15T17:06:21;10.20;89.60
42835;DHT22;29335;50.526;30.458;2022-10-15T17:08:58;10.00;89.80
42835;DHT22;29335;50.526;30.458;2022-10-15T17:11:30;10.00;90.00
42835;DHT22;29335;50.526;30.458;2022-10-15T17:13:58;10.00;90.10
42835;DHT22;29335;50.526;30.458;2022-10-15T17:16:26;9.80;90.30
42835;DHT22;29335;50.526;30.458;2022-10-15T17:18:53;9.80;90.50
42835;DHT22;29335;50.526;30.458;2022-10-15T17:21:23;9.80;90.60
42835;DHT22;29335;50.526;30.458;2022-10-15T17:23:54;9.80;90.70
42835;DHT22;29335;50.526;30.458;2022-10-15T17:26:22;9.80;90.70
42835;DHT22;29335;50.526;30.458;2022-10-15T17:28:49;9.80;90.90
42835;DHT22;29335;50.526;30.458;2022-10-15T17:31:21;9.80;91.00
42835;DHT22;29335;50.526;30.458;2022-10-15T17:33:47;9.80;91.00
42835;DHT22;29335;50.526;30.458;2022-10-15T17:36:15;9.70;91.30
42835;DHT22;29335;50.526;30.458;2022-10-15T17:38:41;9.70;91.30
42835;DHT22;29335;50.526;30.458;2022-10-15T17:41:10;9.60;91.40